sensor_id;sensor_type;location;lat;lon;timestamp;temperature;humidity
53752;DHT22;41095;53.090;6.692;2023-09-08T00:02:26;18.60;99.90
53752;DHT22;41095;53.090;6.692;2023-09-08T00:04:51;18.60;99.90
53752;DHT22;41095;53.090;6.692;2023-09-08T00:07:17;18.50;99.90
53752;DHT22;41095;53.090;6.692;2023-09-08T00:09:43;18.40;99.90
53752;DHT22;41095;53.090;6.692;2023-09-08T00:12:09;18.40;99.90
53752;DHT22;41095;53.090;6.692;2023-09-08T00:14:34;18.30;99.90
53752;DHT22;41095;53.090;6.692;2023-09-08T00:17:00;18.30;99.90
53752;DHT22;41095;53.090;6.692;2023-09-08T00:19:26;18.20;99.90
53752;DHT22;41095;53.090;6.692;2023-09-08T00:21:51;18.20;99.90
53752;DHT22;41095;53.090;6.692;2023-09-08T00:24:18;18.20;99.90
53752;DHT22;41095;53.090;6.692;2023-09-08T00:26:44;18.20;99.90
53752;DHT22;41095;53.090;6.692;2023-09-08T00:29:10;18.10;99.90
53752;DHT22;41095;53.090;6.692;2023-09-08T00:31:35;18.10;99.90
53752;DHT22;41095;53.090;6.692;2023-09-08T00:34:01;18.10;99.90
53752;DHT22;41095;53.090;6.692;2023-09-08T00:36:27;18.00;99.90
53752;DHT22;41095;53.090;6.692;2023-09-08T00:38:52;18.00;99.90
53752;DHT22;41095;53.090;6.692;2023-09-08T00:41:18;17.90;99.90
53752;DHT22;41095;53.090;6.692;2023-09-08T00:43:44;17.90;99.90
53752;DHT22;41095;53.090;6.692;2023-09-08T00:46:10;17.80;99.90
53752;DHT22;41095;53.090;6.692;2023-09-08T00:48:36;17.80;99.90
53752;DHT22;41095;53.090;6.692;2023-09-08T00:51:03;17.80;99.90
53752;DHT22;41095;53.090;6.692;2023-09-08T00:53:31;17.70;99.90
53752;DHT22;41095;53.090;6.692;2023-09-08T00:55:57;17.70;99.90
53752;DHT22;41095;53.090;6.692;2023-09-08T00:58:24;17.70;99.90
53752;DHT22;41095;53.090;6.692;2023-09-08T01:00:49;17.70;99.90
53752;DHT22;41095;53.090;6.692;2023-09-08T01:03:15;17.60;99.90
53752;DHT22;41095;53.090;6.692;2023-09-08T01:05:41;17.60;99.90
53752;DHT22;41095;53.090;6.692;2023-09-08T01:08:07;17.60;99.90
53752;DHT22;41095;53.090;6.692;2023-09-08T01:10:34;17.60;99.90
53752;DHT22;41095;53.090;6.692;2023-09-08T01:13:00;17.60;99.90
53752;DHT22;41095;53.090;6.692;2023-09-08T01:15:25;17.60;99.90
53752;DHT22;41095;53.090;6.692;2023-09-08T01:17:51;17.50;99.90
53752;DHT22;41095;53.090;6.692;2023-09-08T01:20:25;17.50;99.90
53752;DHT22;41095;53.090;6.692;2023-09-08T01:23:15;17.40;99.90
53752;DHT22;41095;53.090;6.692;2023-09-08T01:25:56;17.40;99.90
53752;DHT22;41095;53.090;6.692;2023-09-08T01:28:23;17.40;99.90
53752;DHT22;41095;53.090;6.692;2023-09-08T01:30:50;17.40;99.90
53752;DHT22;41095;53.090;6.692;2023-09-08T01:33:17;17.40;99.90
53752;DHT22;41095;53.090;6.692;2023-09-08T01:35:43;17.40;99.90
53752;DHT22;41095;53.090;6.692;2023-09-08T01:38:09;17.40;99.90
53752;DHT22;41095;53.090;6.692;2023-09-08T01:40:35;17.40;99.90
53752;DHT22;41095;53.090;6.692;2023-09-08T01:43:00;17.40;99.90
53752;DHT22;41095;53.090;6.692;2023-09-08T01:45:26;17.30;99.90
53752;DHT22;41095;53.090;6.692;2023-09-08T01:47:52;17.30;99.90
53752;DHT22;41095;53.090;6.692;2023-09-08T01:50:18;17.30;99.90
53752;DHT22;41095;53.090;6.692;2023-09-08T01:52:47;17.30;99.90
53752;DHT22;41095;53.090;6.692;2023-09-08T01:55:14;17.20;99.90
53752;DHT22;41095;53.090;6.692;2023-09-08T01:57:40;17.20;99.90
53752;DHT22;41095;53.090;6.692;2023-09-08T02:00:06;17.20;99.90
53752;DHT22;41095;53.090;6.692;2023-09-08T02:02:32;17.20;99.90
53752;DHT22;41095;53.090;6.692;2023-09-08T02:04:58;17.20;99.90
53752;DHT22;41095;53.090;6.692;2023-09-08T02:07:23;17.20;99.90
53752;DHT22;41095;53.090;6.692;2023-09-08T02:09:49;17.20;99.90
53752;DHT22;41095;53.090;6.692;2023-09-08T02:12:15;17.20;99.90
53752;DHT22;41095;53.090;6.692;2023-09-08T02:14:40;17.20;99.90
53752;DHT22;41095;53.090;6.692;2023-09-08T02:17:06;17.20;99.90
53752;DHT22;41095;53.090;6.692;2023-09-08T02:19:32;17.20;99.90
53752;DHT22;41095;53.090;6.692;2023-09-08T02:21:57;17.20;99.90
53752;DHT22;41095;53.090;6.692;2023-09-08T02:24:23;17.10;99.90
53752;DHT22;41095;53.090;6.692;2023-09-08T02:26:49;17.10;99.90
53752;DHT22;41095;53.090;6.692;2023-09-08T02:29:15;17.10;99.90
53752;DHT22;41095;53.090;6.692;2023-09-08T02:31:40;17.10;99.90
53752;DHT22;41095;53.090;6.692;2023-09-08T02:34:06;17.00;99.90
53752;DHT22;41095;53.090;6.692;2023-09-08T02:36:32;17.00;99.90
53752;DHT22;41095;53.090;6.692;2023-09-08T02:38:58;16.90;99.90
53752;DHT22;41095;53.090;6.692;2023-09-08T02:41:23;16.90;99.90
53752;DHT22;41095;53.090;6.692;2023-09-08T02:43:49;16.80;99.90
53752;DHT22;41095;53.090;6.692;2023-09-08T02:46:15;16.80;99.90
53752;DHT22;41095;53.090;6.692;2023-09-08T02:48:41;16.80;99.90
53752;DHT22;41095;53.090;6.692;2023-09-08T02:51:07;16.70;99.90
53752;DHT22;41095;53.090;6.692;2023-09-08T02:53:33;16.70;99.90
53752;DHT22;41095;53.090;6.692;2023-09-08T02:55:59;16.70;99.90
53752;DHT22;41095;53.090;6.692;2023-09-08T02:58:25;16.70;99.90
53752;DHT22;41095;53.090;6.692;2023-09-08T03:00:50;16.60;99.90
53752;DHT22;41095;53.090;6.692;2023-09-08T03:03:20;16.60;99.90
53752;DHT22;41095;53.090;6.692;2023-09-08T03:05:46;16.60;99.90
53752;DHT22;41095;53.090;6.692;2023-09-08T03:08:12;16.50;99.90
53752;DHT22;41095;53.090;6.692;2023-09-08T03:10:37;16.50;99.90
53752;DHT22;41095;53.090;6.692;2023-09-08T03:13:04;16.40;99.90
53752;DHT22;41095;53.090;6.692;2023-09-08T03:15:30;16.40;99.90
53752;DHT22;41095;53.090;6.692;2023-09-08T03:17:56;16.50;99.90
53752;DHT22;41095;53.090;6.692;2023-09-08T03:20:24;16.40;99.90
53752;DHT22;41095;53.090;6.692;2023-09-08T03:22:54;16.40;99.90
53752;DHT22;41095;53.090;6.692;2023-09-08T03:25:20;16.30;99.90
53752;DHT22;41095;53.090;6.692;2023-09-08T03:27:46;16.30;99.90
53752;DHT22;41095;53.090;6.692;2023-09-08T03:30:12;16.30;99.90
53752;DHT22;41095;53.090;6.692;2023-09-08T03:32:38;16.30;99.90
53752;DHT22;41095;53.090;6.692;2023-09-08T03:35:04;16.30;99.90
53752;DHT22;41095;53.090;6.692;2023-09-08T03:37:36;16.30;99.90
53752;DHT22;41095;53.090;6.692;2023-09-08T03:40:02;16.20;99.90
53752;DHT22;41095;53.090;6.692;2023-09-08T03:42:31;16.20;99.90
53752;DHT22;41095;53.090;6.692;2023-09-08T03:44:56;16.20;99.90
53752;DHT22;41095;53.090;6.692;2023-09-08T03:47:22;16.20;99.90
53752;DHT22;41095;53.090;6.692;2023-09-08T03:49:47;16.10;99.90
53752;DHT22;41095;53.090;6.692;2023-09-08T03:52:13;16.10;99.90
53752;DHT22;41095;53.090;6.692;2023-09-08T03:54:39;16.10;99.90
53752;DHT22;41095;53.090;6.692;2023-09-08T03:57:04;16.10;99.90
53752;DHT22;41095;53.090;6.692;2023-09-08T03:59:30;16.10;99.90
53752;DHT22;41095;53.090;6.692;2023-09-08T04:01:56;16.00;99.90
53752;DHT22;41095;53.090;6.692;2023-09-08T04:04:21;16.00;99.90
53752;DHT22;41095;53.090;6.692;2023-09-08T04:06:47;15.90;99.90
53752;DHT22;41095;53.090;6.692;2023-09-08T04:09:13;15.80;99.90
53752;DHT22;41095;53.090;6.692;2023-09-08T04:11:39;15.90;99.90
53752;DHT22;41095;53.090;6.692;2023-09-08T04:14:04;15.80;99.90
53752;DHT22;41095;53.090;6.692;2023-09-08T04:16:30;15.80;99.90
53752;DHT22;41095;53.090;6.692;2023-09-08T04:18:56;15.80;99.90
53752;DHT22;41095;53.090;6.692;2023-09-08T04:21:21;15.80;99.90
53752;DHT22;41095;53.090;6.692;2023-09-08T04:23:47;15.70;99.90
53752;DHT22;41095;53.090;6.692;2023-09-08T04:26:13;15.70;99.90
53752;DHT22;41095;53.090;6.692;2023-09-08T04:28:39;15.70;99.90
53752;DHT22;41095;53.090;6.692;2023-09-08T04:31:04;15.60;99.90
53752;DHT22;41095;53.090;6.692;2023-09-08T04:33:30;15.60;99.90
53752;DHT22;41095;53.090;6.692;2023-09-08T04:35:56;15.60;99.90
53752;DHT22;41095;53.090;6.692;2023-09-08T04:38:21;15.60;99.90
53752;DHT22;41095;53.090;6.692;2023-09-08T04:40:47;15.60;99.90
53752;DHT22;41095;53.090;6.692;2023-09-08T04:43:13;15.50;99.90
53752;DHT22;41095;53.090;6.692;2023-09-08T04:45:38;15.50;99.90
53752;DHT22;41095;53.090;6.692;2023-09-08T04:48:05;15.50;99.90
53752;DHT22;41095;53.090;6.692;2023-09-08T04:50:30;15.50;99.90
53752;DHT22;41095;53.090;6.692;2023-09-08T04:52:56;15.50;99.90
53752;DHT22;41095;53.090;6.692;2023-09-08T04:55:22;15.60;99.90
53752;DHT22;41095;53.090;6.692;2023-09-08T04:57:47;15.60;99.90
53752;DHT22;41095;53.090;6.692;2023-09-08T05:00:13;15.50;99.90
53752;DHT22;41095;53.090;6.692;2023-09-08T05:02:39;15.50;99.90
53752;DHT22;41095;53.090;6.692;2023-09-08T05:05:05;15.50;99.90
53752;DHT22;41095;53.090;6.692;2023-09-08T05:07:31;15.50;99.90
53752;DHT22;41095;53.090;6.692;2023-09-08T05:09:56;15.50;99.90
53752;DHT22;41095;53.090;6.692;2023-09-08T05:12:22;15.50;99.90
53752;DHT22;41095;53.090;6.692;2023-09-08T05:14:48;15.50;99.90
53752;DHT22;41095;53.090;6.692;2023-09-08T05:17:13;15.50;99.90
53752;DHT22;41095;53.090;6.692;2023-09-08T05:19:39;15.50;99.90
53752;DHT22;41095;53.090;6.692;2023-09-08T05:22:05;15.40;99.90
53752;DHT22;41095;53.090;6.692;2023-09-08T05:24:32;15.40;99.90
53752;DHT22;41095;53.090;6.692;2023-09-08T05:26:58;15.40;99.90
53752;DHT22;41095;53.090;6.692;2023-09-08T05:29:24;15.40;99.90
53752;DHT22;41095;53.090;6.692;2023-09-08T05:31:49;15.30;99.90
53752;DHT22;41095;53.090;6.692;2023-09-08T05:34:15;15.30;99.90
53752;DHT22;41095;53.090;6.692;2023-09-08T05:36:41;15.40;99.90
53752;DHT22;41095;53.090;6.692;2023-09-08T05:39:08;15.40;99.90
53752;DHT22;41095;53.090;6.692;2023-09-08T05:41:33;15.40;99.90
53752;DHT22;41095;53.090;6.692;2023-09-08T05:44:00;15.40;99.90
53752;DHT22;41095;53.090;6.692;2023-09-08T05:46:25;15.40;99.90
53752;DHT22;41095;53.090;6.692;2023-09-08T05:48:51;15.50;99.90
53752;DHT22;41095;53.090;6.692;2023-09-08T05:51:17;15.50;99.90
53752;DHT22;41095;53.090;6.692;2023-09-08T05:53:42;15.60;99.90
53752;DHT22;41095;53.090;6.692;2023-09-08T05:56:09;15.60;99.90
53752;DHT22;41095;53.090;6.692;2023-09-08T05:58:35;15.70;99.90
53752;DHT22;41095;53.090;6.692;2023-09-08T06:01:01;15.70;99.90
53752;DHT22;41095;53.090;6.692;2023-09-08T06:03:28;15.80;99.90
53752;DHT22;41095;53.090;6.692;2023-09-08T06:05:53;15.80;99.90
53752;DHT22;41095;53.090;6.692;2023-09-08T06:08:19;15.90;99.90
53752;DHT22;41095;53.090;6.692;2023-09-08T06:10:45;15.90;99.90
53752;DHT22;41095;53.090;6.692;2023-09-08T06:13:10;16.00;99.90
53752;DHT22;41095;53.090;6.692;2023-09-08T06:15:36;16.00;99.90
53752;DHT22;41095;53.090;6.692;2023-09-08T06:18:02;16.10;99.90
53752;DHT22;41095;53.090;6.692;2023-09-08T06:20:28;16.20;99.90
53752;DHT22;41095;53.090;6.692;2023-09-08T06:22:54;16.30;99.90
53752;DHT22;41095;53.090;6.692;2023-09-08T06:25:20;16.30;99.90
53752;DHT22;41095;53.090;6.692;2023-09-08T06:27:45;16.40;99.90
53752;DHT22;41095;53.090;6.692;2023-09-08T06:30:11;16.50;99.90
53752;DHT22;41095;53.090;6.692;2023-09-08T06:32:39;16.60;99.90
53752;DHT22;41095;53.090;6.692;2023-09-08T06:35:05;16.70;99.90
53752;DHT22;41095;53.090;6.692;2023-09-08T06:37:35;16.90;99.90
53752;DHT22;41095;53.090;6.692;2023-09-08T06:40:01;17.00;99.90
53752;DHT22;41095;53.090;6.692;2023-09-08T06:42:27;17.20;99.90
53752;DHT22;41095;53.090;6.692;2023-09-08T06:44:53;17.20;99.90
53752;DHT22;41095;53.090;6.692;2023-09-08T06:47:18;17.40;99.90
53752;DHT22;41095;53.090;6.692;2023-09-08T06:49:44;17.50;99.90
53752;DHT22;41095;53.090;6.692;2023-09-08T06:52:10;17.60;99.90
53752;DHT22;41095;53.090;6.692;2023-09-08T06:54:36;17.70;99.90
53752;DHT22;41095;53.090;6.692;2023-09-08T06:57:02;17.80;99.90
53752;DHT22;41095;53.090;6.692;2023-09-08T06:59:27;17.90;99.90
53752;DHT22;41095;53.090;6.692;2023-09-08T07:01:53;18.00;99.90
53752;DHT22;41095;53.090;6.692;2023-09-08T07:04:19;18.20;99.90
53752;DHT22;41095;53.090;6.692;2023-09-08T07:06:44;18.40;99.90
53752;DHT22;41095;53.090;6.692;2023-09-08T07:09:12;18.50;99.90
53752;DHT22;41095;53.090;6.692;2023-09-08T07:11:38;18.70;99.90
53752;DHT22;41095;53.090;6.692;2023-09-08T07:14:03;18.80;99.90
53752;DHT22;41095;53.090;6.692;2023-09-08T07:16:29;19.00;99.90
53752;DHT22;41095;53.090;6.692;2023-09-08T07:18:55;19.10;99.90
53752;DHT22;41095;53.090;6.692;2023-09-08T07:21:20;19.30;99.90
53752;DHT22;41095;53.090;6.692;2023-09-08T07:23:46;19.50;99.90
53752;DHT22;41095;53.090;6.692;2023-09-08T07:26:12;20.40;99.90
53752;DHT22;41095;53.090;6.692;2023-09-08T07:28:38;22.20;99.90
53752;DHT22;41095;53.090;6.692;2023-09-08T07:31:06;24.00;99.90
53752;DHT22;41095;53.090;6.692;2023-09-08T07:33:34;25.60;99.90
53752;DHT22;41095;53.090;6.692;2023-09-08T07:36:05;26.70;99.90
53752;DHT22;41095;53.090;6.692;2023-09-08T07:38:31;27.80;99.90
53752;DHT22;41095;53.090;6.692;2023-09-08T07:40:57;28.40;99.90
53752;DHT22;41095;53.090;6.692;2023-09-08T07:43:25;29.00;99.90
53752;DHT22;41095;53.090;6.692;2023-09-08T07:45:51;29.70;99.60
53752;DHT22;41095;53.090;6.692;2023-09-08T07:48:17;30.10;98.60
53752;DHT22;41095;53.090;6.692;2023-09-08T07:50:42;30.70;97.90
53752;DHT22;41095;53.090;6.692;2023-09-08T07:53:08;31.10;97.10
53752;DHT22;41095;53.090;6.692;2023-09-08T07:55:34;31.60;96.20
53752;DHT22;41095;53.090;6.692;2023-09-08T07:58:01;32.10;95.60
53752;DHT22;41095;53.090;6.692;2023-09-08T08:00:29;32.60;95.00
53752;DHT22;41095;53.090;6.692;2023-09-08T08:02:56;32.90;94.40
53752;DHT22;41095;53.090;6.692;2023-09-08T08:05:22;33.20;93.80
53752;DHT22;41095;53.090;6.692;2023-09-08T08:07:48;33.40;93.40
53752;DHT22;41095;53.090;6.692;2023-09-08T08:10:14;33.70;92.70
53752;DHT22;41095;53.090;6.692;2023-09-08T08:12:41;33.80;92.10
53752;DHT22;41095;53.090;6.692;2023-09-08T08:15:08;33.90;91.80
53752;DHT22;41095;53.090;6.692;2023-09-08T08:17:38;34.30;91.60
53752;DHT22;41095;53.090;6.692;2023-09-08T08:20:09;34.30;91.30
53752;DHT22;41095;53.090;6.692;2023-09-08T08:22:36;34.50;90.90
53752;DHT22;41095;53.090;6.692;2023-09-08T08:25:02;34.40;91.00
53752;DHT22;41095;53.090;6.692;2023-09-08T08:27:31;34.50;90.90
53752;DHT22;41095;53.090;6.692;2023-09-08T08:29:58;34.60;90.80
53752;DHT22;41095;53.090;6.692;2023-09-08T08:32:26;34.50;90.70
53752;DHT22;41095;53.090;6.692;2023-09-08T08:34:52;34.60;90.70
53752;DHT22;41095;53.090;6.692;2023-09-08T08:37:18;34.70;90.60
53752;DHT22;41095;53.090;6.692;2023-09-08T08:39:43;34.90;90.60
53752;DHT22;41095;53.090;6.692;2023-09-08T08:42:10;34.70;90.60
53752;DHT22;41095;53.090;6.692;2023-09-08T08:44:38;34.20;90.60
53752;DHT22;41095;53.090;6.692;2023-09-08T08:47:06;34.40;90.60
53752;DHT22;41095;53.090;6.692;2023-09-08T08:49:33;34.20;90.70
53752;DHT22;41095;53.090;6.692;2023-09-08T08:51:59;34.20;90.70
53752;DHT22;41095;53.090;6.692;2023-09-08T08:54:27;34.30;90.60
53752;DHT22;41095;53.090;6.692;2023-09-08T08:56:53;34.60;90.70
53752;DHT22;41095;53.090;6.692;2023-09-08T08:59:19;34.80;90.00
53752;DHT22;41095;53.090;6.692;2023-09-08T09:01:45;34.60;89.00
53752;DHT22;41095;53.090;6.692;2023-09-08T09:04:12;35.00;88.40
53752;DHT22;41095;53.090;6.692;2023-09-08T09:06:38;35.70;87.70
53752;DHT22;41095;53.090;6.692;2023-09-08T09:09:04;35.80;86.40
53752;DHT22;41095;53.090;6.692;2023-09-08T09:11:30;35.70;85.60
53752;DHT22;41095;53.090;6.692;2023-09-08T09:13:59;35.70;84.80
53752;DHT22;41095;53.090;6.692;2023-09-08T09:16:24;35.80;84.50
53752;DHT22;41095;53.090;6.692;2023-09-08T09:18:57;35.70;83.00
53752;DHT22;41095;53.090;6.692;2023-09-08T09:21:24;36.00;82.90
53752;DHT22;41095;53.090;6.692;2023-09-08T09:23:50;36.30;83.00
53752;DHT22;41095;53.090;6.692;2023-09-08T09:26:26;36.20;82.10
53752;DHT22;41095;53.090;6.692;2023-09-08T09:28:52;36.30;78.10
53752;DHT22;41095;53.090;6.692;2023-09-08T09:31:23;36.10;80.70
53752;DHT22;41095;53.090;6.692;2023-09-08T09:34:02;36.30;79.90
53752;DHT22;41095;53.090;6.692;2023-09-08T09:36:29;35.90;78.00
53752;DHT22;41095;53.090;6.692;2023-09-08T09:39:02;35.70;79.90
53752;DHT22;41095;53.090;6.692;2023-09-08T09:41:29;36.10;79.10
53752;DHT22;41095;53.090;6.692;2023-09-08T09:43:58;36.00;79.90
53752;DHT22;41095;53.090;6.692;2023-09-08T09:46:23;36.10;79.10
53752;DHT22;41095;53.090;6.692;2023-09-08T09:48:55;36.00;79.00
53752;DHT22;41095;53.090;6.692;2023-09-08T09:51:24;36.30;79.20
53752;DHT22;41095;53.090;6.692;2023-09-08T09:53:50;36.30;79.10
53752;DHT22;41095;53.090;6.692;2023-09-08T09:56:17;36.40;78.60
53752;DHT22;41095;53.090;6.692;2023-09-08T09:58:44;36.70;77.80
53752;DHT22;41095;53.090;6.692;2023-09-08T10:01:11;36.50;77.20
53752;DHT22;41095;53.090;6.692;2023-09-08T10:03:40;36.40;77.50
53752;DHT22;41095;53.090;6.692;2023-09-08T10:06:06;36.50;76.60
53752;DHT22;41095;53.090;6.692;2023-09-08T10:08:34;36.70;77.00
53752;DHT22;41095;53.090;6.692;2023-09-08T10:11:07;36.80;77.00
53752;DHT22;41095;53.090;6.692;2023-09-08T10:13:39;37.20;75.80
53752;DHT22;41095;53.090;6.692;2023-09-08T10:16:08;37.40;75.80
53752;DHT22;41095;53.090;6.692;2023-09-08T10:18:35;37.60;75.70
53752;DHT22;41095;53.090;6.692;2023-09-08T10:21:03;37.70;75.90
53752;DHT22;41095;53.090;6.692;2023-09-08T10:23:42;38.00;75.50
53752;DHT22;41095;53.090;6.692;2023-09-08T10:26:14;38.20;75.80
53752;DHT22;41095;53.090;6.692;2023-09-08T10:28:42;38.50;74.40
53752;DHT22;41095;53.090;6.692;2023-09-08T10:31:08;38.80;74.50
53752;DHT22;41095;53.090;6.692;2023-09-08T10:33:34;39.00;73.60
53752;DHT22;41095;53.090;6.692;2023-09-08T10:36:02;38.90;72.90
53752;DHT22;41095;53.090;6.692;2023-09-08T10:38:34;38.90;72.40
53752;DHT22;41095;53.090;6.692;2023-09-08T10:43:46;38.80;72.10
53752;DHT22;41095;53.090;6.692;2023-09-08T10:46:24;38.30;71.70
53752;DHT22;41095;53.090;6.692;2023-09-08T10:48:52;37.70;72.10
53752;DHT22;41095;53.090;6.692;2023-09-08T10:51:18;36.40;72.40
53752;DHT22;41095;53.090;6.692;2023-09-08T10:53:47;35.20;73.40
53752;DHT22;41095;53.090;6.692;2023-09-08T10:56:16;34.30;73.10
53752;DHT22;41095;53.090;6.692;2023-09-08T10:58:42;33.40;74.30
53752;DHT22;41095;53.090;6.692;2023-09-08T11:01:20;32.70;74.30
53752;DHT22;41095;53.090;6.692;2023-09-08T11:03:52;32.40;75.80
53752;DHT22;41095;53.090;6.692;2023-09-08T11:06:20;32.10;74.90
53752;DHT22;41095;53.090;6.692;2023-09-08T11:08:49;31.80;75.20
53752;DHT22;41095;53.090;6.692;2023-09-08T11:11:18;31.60;75.90
53752;DHT22;41095;53.090;6.692;2023-09-08T11:13:44;31.50;76.60
53752;DHT22;41095;53.090;6.692;2023-09-08T11:16:16;31.40;77.30
53752;DHT22;41095;53.090;6.692;2023-09-08T11:18:46;31.20;77.70
53752;DHT22;41095;53.090;6.692;2023-09-08T11:21:12;31.20;78.80
53752;DHT22;41095;53.090;6.692;2023-09-08T11:23:39;31.10;78.80
53752;DHT22;41095;53.090;6.692;2023-09-08T11:26:06;31.00;77.70
53752;DHT22;41095;53.090;6.692;2023-09-08T11:28:34;30.90;76.90
53752;DHT22;41095;53.090;6.692;2023-09-08T11:31:00;30.90;77.30
53752;DHT22;41095;53.090;6.692;2023-09-08T11:33:26;30.90;77.00
53752;DHT22;41095;53.090;6.692;2023-09-08T11:35:54;30.90;76.00
53752;DHT22;41095;53.090;6.692;2023-09-08T11:38:27;30.80;76.50
53752;DHT22;41095;53.090;6.692;2023-09-08T11:40:57;30.80;76.60
53752;DHT22;41095;53.090;6.692;2023-09-08T11:43:23;30.80;77.40
53752;DHT22;41095;53.090;6.692;2023-09-08T11:45:50;30.90;77.80
53752;DHT22;41095;53.090;6.692;2023-09-08T11:48:16;30.90;77.30
53752;DHT22;41095;53.090;6.692;2023-09-08T11:50:42;30.90;77.90
53752;DHT22;41095;53.090;6.692;2023-09-08T11:53:09;30.90;78.20
53752;DHT22;41095;53.090;6.692;2023-09-08T11:55:35;30.90;78.40
53752;DHT22;41095;53.090;6.692;2023-09-08T11:58:03;30.90;78.50
53752;DHT22;41095;53.090;6.692;2023-09-08T12:00:30;30.90;77.70
53752;DHT22;41095;53.090;6.692;2023-09-08T12:02:59;30.90;77.40
53752;DHT22;41095;53.090;6.692;2023-09-08T12:05:34;31.00;76.60
53752;DHT22;41095;53.090;6.692;2023-09-08T12:08:04;31.10;76.60
53752;DHT22;41095;53.090;6.692;2023-09-08T12:10:30;31.30;76.40
53752;DHT22;41095;53.090;6.692;2023-09-08T12:13:03;31.30;76.20
53752;DHT22;41095;53.090;6.692;2023-09-08T12:15:38;31.40;75.70
53752;DHT22;41095;53.090;6.692;2023-09-08T12:18:12;31.50;74.80
53752;DHT22;41095;53.090;6.692;2023-09-08T12:20:41;31.50;74.70
53752;DHT22;41095;53.090;6.692;2023-09-08T12:23:21;31.50;75.00
53752;DHT22;41095;53.090;6.692;2023-09-08T12:25:49;31.60;75.00
53752;DHT22;41095;53.090;6.692;2023-09-08T12:28:16;31.70;74.80
53752;DHT22;41095;53.090;6.692;2023-09-08T12:30:43;31.70;75.90
53752;DHT22;41095;53.090;6.692;2023-09-08T12:33:08;31.70;76.10
53752;DHT22;41095;53.090;6.692;2023-09-08T12:35:35;31.70;76.00
53752;DHT22;41095;53.090;6.692;2023-09-08T12:38:05;31.70;76.20
53752;DHT22;41095;53.090;6.692;2023-09-08T12:40:34;31.80;76.60
53752;DHT22;41095;53.090;6.692;2023-09-08T12:43:01;31.80;76.80
53752;DHT22;41095;53.090;6.692;2023-09-08T12:45:27;31.80;77.20
53752;DHT22;41095;53.090;6.692;2023-09-08T12:47:53;31.90;77.80
53752;DHT22;41095;53.090;6.692;2023-09-08T12:50:24;31.90;78.00
53752;DHT22;41095;53.090;6.692;2023-09-08T12:52:49;31.90;78.30
53752;DHT22;41095;53.090;6.692;2023-09-08T12:55:15;31.90;78.30
53752;DHT22;41095;53.090;6.692;2023-09-08T12:57:41;31.90;78.20
53752;DHT22;41095;53.090;6.692;2023-09-08T13:00:07;31.80;77.40
53752;DHT22;41095;53.090;6.692;2023-09-08T13:02:33;31.90;77.70
53752;DHT22;41095;53.090;6.692;2023-09-08T13:04:59;31.80;77.80
53752;DHT22;41095;53.090;6.692;2023-09-08T13:07:24;31.80;78.00
53752;DHT22;41095;53.090;6.692;2023-09-08T13:09:51;31.90;77.50
53752;DHT22;41095;53.090;6.692;2023-09-08T13:12:17;31.80;76.90
53752;DHT22;41095;53.090;6.692;2023-09-08T13:14:43;31.90;77.00
53752;DHT22;41095;53.090;6.692;2023-09-08T13:17:12;31.90;77.50
53752;DHT22;41095;53.090;6.692;2023-09-08T13:19:38;31.90;77.80
53752;DHT22;41095;53.090;6.692;2023-09-08T13:22:04;31.90;77.70
53752;DHT22;41095;53.090;6.692;2023-09-08T13:24:30;32.00;77.60
53752;DHT22;41095;53.090;6.692;2023-09-08T13:26:56;32.00;77.40
53752;DHT22;41095;53.090;6.692;2023-09-08T13:29:22;32.20;77.00
53752;DHT22;41095;53.090;6.692;2023-09-08T13:31:47;32.20;76.90
53752;DHT22;41095;53.090;6.692;2023-09-08T13:34:14;32.20;76.60
53752;DHT22;41095;53.090;6.692;2023-09-08T13:36:39;32.10;77.00
53752;DHT22;41095;53.090;6.692;2023-09-08T13:39:05;32.10;77.60
53752;DHT22;41095;53.090;6.692;2023-09-08T13:41:53;32.10;76.50
53752;DHT22;41095;53.090;6.692;2023-09-08T13:44:20;32.20;75.70
53752;DHT22;41095;53.090;6.692;2023-09-08T13:46:47;32.30;76.50
53752;DHT22;41095;53.090;6.692;2023-09-08T13:49:13;32.30;76.40
53752;DHT22;41095;53.090;6.692;2023-09-08T13:51:39;32.30;76.70
53752;DHT22;41095;53.090;6.692;2023-09-08T13:54:06;32.20;76.30
53752;DHT22;41095;53.090;6.692;2023-09-08T13:56:32;32.30;76.40
53752;DHT22;41095;53.090;6.692;2023-09-08T13:58:57;32.30;76.10
53752;DHT22;41095;53.090;6.692;2023-09-08T14:01:23;32.20;76.60
53752;DHT22;41095;53.090;6.692;2023-09-08T14:03:49;32.20;76.60
53752;DHT22;41095;53.090;6.692;2023-09-08T14:06:20;32.30;76.80
53752;DHT22;41095;53.090;6.692;2023-09-08T14:08:46;32.30;76.90
53752;DHT22;41095;53.090;6.692;2023-09-08T14:11:12;32.20;76.90
53752;DHT22;41095;53.090;6.692;2023-09-08T14:13:40;32.20;77.20
53752;DHT22;41095;53.090;6.692;2023-09-08T14:16:06;32.20;78.00
53752;DHT22;41095;53.090;6.692;2023-09-08T14:18:33;32.20;77.80
53752;DHT22;41095;53.090;6.692;2023-09-08T14:20:59;32.10;78.20
53752;DHT22;41095;53.090;6.692;2023-09-08T14:23:24;32.10;78.00
53752;DHT22;41095;53.090;6.692;2023-09-08T14:25:51;32.20;77.70
53752;DHT22;41095;53.090;6.692;2023-09-08T14:28:17;32.20;77.60
53752;DHT22;41095;53.090;6.692;2023-09-08T14:30:43;32.20;77.90
53752;DHT22;41095;53.090;6.692;2023-09-08T14:33:10;32.30;78.20
53752;DHT22;41095;53.090;6.692;2023-09-08T14:35:44;32.30;78.20
53752;DHT22;41095;53.090;6.692;2023-09-08T14:38:10;32.20;76.80
53752;DHT22;41095;53.090;6.692;2023-09-08T14:40:35;32.20;77.20
53752;DHT22;41095;53.090;6.692;2023-09-08T14:43:01;32.10;76.90
53752;DHT22;41095;53.090;6.692;2023-09-08T14:45:27;32.10;76.20
53752;DHT22;41095;53.090;6.692;2023-09-08T14:47:53;32.10;76.40
53752;DHT22;41095;53.090;6.692;2023-09-08T14:50:19;32.10;76.20
53752;DHT22;41095;53.090;6.692;2023-09-08T14:52:45;32.10;77.00
53752;DHT22;41095;53.090;6.692;2023-09-08T14:55:11;32.10;76.80
53752;DHT22;41095;53.090;6.692;2023-09-08T14:57:36;32.10;77.00
53752;DHT22;41095;53.090;6.692;2023-09-08T15:00:03;32.10;78.00
53752;DHT22;41095;53.090;6.692;2023-09-08T15:02:31;32.00;78.00
53752;DHT22;41095;53.090;6.692;2023-09-08T15:04:56;31.90;77.50
53752;DHT22;41095;53.090;6.692;2023-09-08T15:07:22;32.00;76.90
53752;DHT22;41095;53.090;6.692;2023-09-08T15:09:48;31.90;77.00
53752;DHT22;41095;53.090;6.692;2023-09-08T15:12:13;31.90;76.40
53752;DHT22;41095;53.090;6.692;2023-09-08T15:14:39;31.90;77.50
53752;DHT22;41095;53.090;6.692;2023-09-08T15:17:05;31.80;76.90
53752;DHT22;41095;53.090;6.692;2023-09-08T15:19:32;31.90;77.00
53752;DHT22;41095;53.090;6.692;2023-09-08T15:21:58;31.90;77.70
53752;DHT22;41095;53.090;6.692;2023-09-08T15:24:24;31.90;78.30
53752;DHT22;41095;53.090;6.692;2023-09-08T15:26:50;31.90;78.50
53752;DHT22;41095;53.090;6.692;2023-09-08T15:29:16;31.90;78.50
53752;DHT22;41095;53.090;6.692;2023-09-08T15:31:43;31.90;78.60